Tiempo atmosférico en la estación meteorológica de Córdoba, Prágdena, Córdoba (275 m.)



Fecha
DESCASC
Temp. máxima en grados centígrados (hora)
DESCASC
Temp. mínima en grados centígrados (hora)
DESCASC
Temp. media en grados centígrados
DESCASC
Racha de viento máxima en m/sg (hora)
DESCASC
Velocidad máxima media en intervalos de 10 minutos(hora)
DESCASC
Precipitaciones diarias en mm
DESCASC
Precipitaciones de 00:00 a 06:00 en mm
DESCASC
Precipitaciones de 06:00 a 12:00 en mm
DESCASC
Precipitaciones de 12:00 a 18:00 en mm
DESCASC
Precipitaciones de 18:00 a 24:00 en mm
DESCASC
16-01-2020 17.1 (16:20) 3.4 (09:10) 10.3 5 (07:20) 3.89 (07:50) 0 0 0 0 0
15-01-2020 15.9 (17:00) 2 (08:30) 8.9 4.44 (08:20) 3.06 (21:50) 0 0 0 0 0
14-01-2020 13.2 (16:00) 1.2 (06:10) 7.2 3.89 (15:20) 2.5 (06:00) 0 0 0 0 0
13-01-2020 13.7 (16:00) 0.5 (08:50) 7.1 3.61 (16:40) 2.5 (05:10) 0 0 0 0 0
12-01-2020 14.3 (16:30) 1.1 (00:00) 7.7 3.89 (08:20) 2.78 (08:10) 0 0 0 0 0
11-01-2020 14.5 (16:20) 3.4 (00:00) 9 6.39 (13:10) 4.17 (13:00) 0 0 0 0 0
10-01-2020 14.7 (16:20) 6.5 (00:00) 10.6 10 (17:20) 6.67 (17:00) 0 0 0 0 0
09-01-2020 14.3 (16:30) 3 (00:00) 8.7 6.11 (15:10) 3.89 (15:50) 0 0 0 0 0
08-01-2020 16.7 (16:20) 1.8 (00:00) 9.3 5 (10:40) 4.17 (10:40) 0 0 0 0 0
07-01-2020 16.4 (16:20) 2.5 (00:00) 9.4 5.83 (11:50) 4.17 (12:00) 0 0 0 0 0
06-01-2020 15.2 (17:10) 1.6 (00:00) 8.4 3.61 (12:00) 2.78 (00:30) 0 0 0 0 0
05-01-2020 13.8 (16:30) 2.6 (00:00) 8.2 4.72 (12:00) 3.61 (11:50) 0 0 0 0 0
04-01-2020 12.2 (16:20) 4.9 (00:00) 8.5 7.5 (09:10) 5 (10:50) 0 0 0 0 0
03-01-2020 13.7 (16:40) 2.1 (00:00) 7.9 2.78 (17:10) 1.67 (17:10) 0 0 0 0 0
02-01-2020 15.2 (15:40) 2.8 (00:00) 9 3.89 (16:20) 3.06 (04:10) 0 0 0 0 0
01-01-2020 17 (17:00) 2.9 (00:00) 10 3.89 (11:10) 3.06 (09:00) 0 0 0 0 0
31-12-2019 14.3 (16:20) 2.7 (00:00) 8.5 4.72 (12:00) 3.06 (09:50) 0 0 0 0 0
30-12-2019 -- (--) -- (--) -- -- (--) -- (--) -- 0 0 0 --
29-12-2019 16 (17:20) 4.4 (00:00) 10.2 3.33 (08:30) 2.5 (08:20) 0 0 0 0 0
28-12-2019 18.4 (16:00) 5.9 (00:00) 12.1 5 (11:20) 3.89 (10:50) 0 0 0 0 0
27-12-2019 19 (16:20) 9.1 (00:00) 14.1 6.39 (09:20) 3.89 (07:10) 0 0 0 0 0
26-12-2019 17.3 (15:30) 6.8 (00:00) 12 6.11 (11:30) 4.17 (19:10) 0 0 0 0 0
25-12-2019 19.1 (17:30) 6 (00:00) 12.6 5.56 (08:20) 4.17 (08:20) 0 0 0 0 0
24-12-2019 19.8 (16:10) 7.3 (00:00) 13.5 8.06 (07:10) 5 (07:20) 0 0 0 0 0
23-12-2019 16.3 (16:20) 9.7 (00:00) 13 5.28 (16:00) 3.61 (16:10) 0 0 0 0 0
22-12-2019 14.9 (16:00) 10.6 (00:00) 12.8 10.28 (00:10) 6.11 (00:10) 0 0 0 0 0
21-12-2019 17 (18:00) 14.2 (00:00) 15.6 18.33 (17:20) 10.83 (11:50) 2.6 0.4 0.6 1.6 0
20-12-2019 16.6 (20:30) 14.9 (00:00) 15.8 20.56 (05:40) 11.39 (21:50) 42.4 13.2 16 10 3.2

Gráficas

Temp. máximas Temp. mínimas Temp. medias Precipitaciones Rachas de viento máximas Velocidades máximas media en intervalos de 10 minutos

Datos horarios

Fecha y hora oficial Temperatura (ºC) Velocidad del viento (km/h) Dirección del viento Racha (km/h) Dirección de racha Precipitación (mm) Presión (hPa) Tendencia (hPa) Humedad (%)
2020-01-18 23:00:00 12.2 17 Oeste 24 Sudoeste 0 -- -- 99
2020-01-18 22:00:00 11.7 8 Sudoeste 18 Sudoeste 0 -- -- 99
2020-01-18 21:00:00 10.9 5 Sur 18 Oeste 1.2 -- -- 99
2020-01-18 20:00:00 11.8 12 Oeste 22 Sudoeste 1.6 -- -- 98
2020-01-18 19:00:00 12.1 12 Sudoeste 20 Sudoeste 1.2 -- -- 98
2020-01-18 18:00:00 11.5 2 Norte 4 Norte 0.8 -- -- 96
2020-01-18 17:00:00 11.4 0 Calma 8 Norte 0.6 -- -- 96
2020-01-18 16:00:00 11.8 3 Norte 10 Norte 0 -- -- 93
2020-01-18 15:00:00 11 8 Norte 14 Noroeste 0 -- -- 94
2020-01-18 14:00:00 11.8 4 Oeste 9 Sudoeste 0 -- -- 86
2020-01-18 13:00:00 11.5 5 Sudoeste 9 Sur 0 -- -- 89
2020-01-18 12:00:00 10 0 Calma 8 Este 0 -- -- 94
2020-01-18 11:00:00 9.1 3 Este 10 Sur 0.6 -- -- 94
2020-01-18 10:00:00 8.3 5 Sudoeste 13 Este 0.8 -- -- 93
2020-01-18 09:00:00 7.9 8 Nordeste 12 Nordeste 0 -- -- 94
2020-01-18 08:00:00 7.7 5 Nordeste 17 Noroeste 0 -- -- 93
2020-01-18 07:00:00 8.3 6 Noroeste 12 Nordeste 0 -- -- 90
2020-01-18 06:00:00 7.6 4 Nordeste 9 Este 0 -- -- 93
2020-01-18 05:00:00 7.5 3 Sudoeste 5 Sudoeste 0 -- -- 91
2020-01-18 04:00:00 7.6 0 Calma 7 Este 0 -- -- 90
2020-01-18 03:00:00 7.8 0 Calma 4 Nordeste 0 -- -- 88
2020-01-18 02:00:00 7.6 3 Este 6 Noroeste 0 -- -- 90
2020-01-18 01:00:00 8.5 0 Calma 7 Nordeste 0 -- -- 85
2020-01-18 00:00:00 9.9 8 Nordeste 9 Nordeste 0 -- -- 81
2020-01-17 23:00:00 10.4 3 Este 6 Este 0 -- -- 79
2020-01-17 22:00:00 10.2 2 Nordeste 8 Este 0 -- -- 79
2020-01-17 21:00:00 10.8 0 Calma 4 Este 0 -- -- 77
2020-01-17 20:00:00 12 3 Sudoeste 6 Oeste 0 -- -- 73
2020-01-17 19:00:00 13.9 3 Sudoeste 6 Sudoeste 0 -- -- 68
2020-01-17 18:00:00 16.3 3 Sudoeste 5 Sudoeste 0 -- -- 60
2020-01-17 17:00:00 16.9 2 Sudeste 9 Sudeste 0 -- -- 58
2020-01-17 16:00:00 17 6 Sudeste 10 Sudeste 0 -- -- 59
2020-01-17 15:00:00 16.3 3 Sur 9 Sudoeste 0 -- -- 62
2020-01-17 14:00:00 15.6 5 Sur 13 Sudoeste 0 -- -- 65
2020-01-17 13:00:00 14.4 6 Sur 13 Sudoeste 0 -- -- 71
2020-01-17 12:00:00 12.8 4 Sudoeste 9 Sudoeste 0 -- -- 73
2020-01-17 11:00:00 9.3 3 Nordeste 12 Norte 0 -- -- 82
2020-01-17 10:00:00 8.5 6 Norte 11 Norte 0 -- -- 85
2020-01-17 09:00:00 8.3 3 Norte 8 Nordeste 0 -- -- 81
2020-01-17 08:00:00 8.6 0 Calma 4 Sudeste 0 -- -- 76
2020-01-17 07:00:00 8.5 4 Sudeste 9 Nordeste 0 -- -- 74
2020-01-17 06:00:00 7.7 6 Nordeste 10 Norte 0 -- -- 78
2020-01-17 05:00:00 7.5 5 Norte 7 Este 0 -- -- 80
2020-01-17 04:00:00 7.7 4 Norte 6 Norte 0 -- -- 77
2020-01-17 03:00:00 8.2 2 Nordeste 10 Norte 0 -- -- 74
2020-01-17 02:00:00 8.7 0 Calma 4 Sudeste 0 -- -- 70
2020-01-17 01:00:00 8.3 0 Calma 10 Sur 0 -- -- 68
2020-01-17 00:00:00 8.5 5 Sur 8 Sur 0 -- -- 67
2020-01-16 23:00:00 8.6 0 Calma 4 Sur 0 -- -- 65
2020-01-16 22:00:00 9.1 3 Sur 5 Sudoeste 0 -- -- 64
2020-01-16 21:00:00 9.9 4 Sudoeste 5 Sur 0 -- -- 63
2020-01-16 20:00:00 11 2 Sur 6 Sur 0 -- -- 57
2020-01-16 19:00:00 13.4 3 Oeste 12 Oeste 0 -- -- 48
2020-01-16 18:00:00 15.6 8 Oeste 13 Oeste 0 -- -- 45
2020-01-16 17:00:00 17.1 8 Sudoeste 17 Sudoeste 0 -- -- 45
2020-01-16 16:00:00 16.9 11 Sudoeste 17 Sudoeste 0 -- -- 44
2020-01-16 15:00:00 16.1 6 Oeste 11 Norte 0 -- -- 48
2020-01-16 14:00:00 14 7 Norte 12 Norte 0 -- -- 56
2020-01-16 13:00:00 13.3 0 Calma 11 Nordeste 0 -- -- 52
2020-01-16 12:00:00 11.1 7 Nordeste 16 Este 0 -- -- 58
2020-01-16 11:00:00 8.3 8 Nordeste 15 Nordeste 0 -- -- 71
2020-01-16 10:00:00 5.1 9 Nordeste 15 Norte 0 -- -- 83
2020-01-16 09:00:00 3.5 10 Norte 13 Norte 0 -- -- 86
2020-01-16 08:00:00 4.8 11 Nordeste 18 Nordeste 0 -- -- 79
2020-01-16 07:00:00 3.7 10 Nordeste 17 Norte 0 -- -- 88
2020-01-16 06:00:00 4.7 10 Nordeste 14 Nordeste 0 -- -- 80
2020-01-16 05:00:00 4.5 8 Norte 10 Nordeste 0 -- -- 84
2020-01-16 04:00:00 5.6 4 Norte 7 Nordeste 0 -- -- 83
2020-01-16 03:00:00 6.4 2 Nordeste 7 Norte 0 -- -- 84
2020-01-16 02:00:00 6.8 5 Norte 7 Norte 0 -- -- 84
2020-01-16 01:00:00 7.5 0 Calma 9 Este 0 -- -- 80
2020-01-16 00:00:00 7.8 5 Nordeste 13 Norte 0 -- -- 80
2020-01-15 23:00:00 8.7 6 Nordeste 12 Nordeste 0 -- -- 78
2020-01-15 22:00:00 9.6 11 Nordeste 14 Nordeste 0 -- -- 76
2020-01-15 21:00:00 10 7 Este 12 Este 0 -- -- 76
2020-01-15 20:00:00 10.8 8 Este 10 Nordeste 0 -- -- 75
2020-01-15 19:00:00 11.4 5 Nordeste 10 Norte 0 -- -- 75
2020-01-15 18:00:00 13.6 7 Norte 10 Norte 0 -- -- 67
2020-01-15 17:00:00 15.9 2 Oeste 13 Oeste 0 -- -- 58
2020-01-15 16:00:00 14.9 6 Oeste 15 Oeste 0 -- -- 58
2020-01-15 15:00:00 14.8 6 Oeste 13 Oeste 0 -- -- 58
2020-01-15 14:00:00 12.9 0 Calma 8 Norte 0 -- -- 64
2020-01-15 13:00:00 11.3 4 Norte 9 Norte 0 -- -- 68
2020-01-15 12:00:00 8.3 3 Norte 14 Norte 0 -- -- 77
2020-01-15 11:00:00 6.6 6 Norte 11 Norte 0 -- -- 81
2020-01-15 10:00:00 4 8 Este 13 Nordeste 0 -- -- 91
2020-01-15 09:00:00 2 8 Norte 16 Norte 0 -- -- 94
2020-01-15 08:00:00 2.4 9 Norte 15 Norte 0 -- -- 93
2020-01-15 07:00:00 3.5 9 Nordeste 14 Nordeste 0 -- -- 90
2020-01-15 06:00:00 2.8 8 Nordeste 12 Nordeste 0 -- -- 93
2020-01-15 05:00:00 3 5 Norte 9 Norte 0 -- -- 93
2020-01-15 04:00:00 3.4 4 Norte 10 Norte 0 -- -- 91
2020-01-15 03:00:00 4 8 Norte 9 Norte 0 -- -- 91
2020-01-15 02:00:00 4.8 5 Norte 7 Nordeste 0 -- -- 85
2020-01-15 01:00:00 5.3 0 Calma 5 Este 0 -- -- 83
2020-01-15 00:00:00 5.5 0 Calma 3 Sudeste 0 -- -- 82
2020-01-14 23:00:00 6.1 0 Calma 2 Este 0 -- -- 79
2020-01-14 22:00:00 6.7 0 Calma 4 Este 0 -- -- 76
2020-01-14 21:00:00 7.7 0 Calma 6 Este 0 -- -- 71
2020-01-14 20:00:00 8.8 3 Este 4 Este 0 -- -- 69
2020-01-14 19:00:00 10.3 3 Oeste 7 Oeste 0 -- -- 63
2020-01-14 18:00:00 12.1 2 Sudoeste 6 Sudeste 0 -- -- 61
2020-01-14 17:00:00 12.6 4 Sur 12 Sudoeste 0 -- -- 56
2020-01-14 16:00:00 13.2 2 Sudeste 14 Sudoeste 0 -- -- 55
2020-01-14 15:00:00 12.6 5 Oeste 10 Oeste 0 -- -- 59
2020-01-14 14:00:00 11.3 4 Noroeste 9 Norte 0 -- -- 67
2020-01-14 13:00:00 10.1 5 Norte 10 Norte 0 -- -- 68
2020-01-14 12:00:00 7.6 5 Nordeste 12 Nordeste 0 -- -- 79
2020-01-14 11:00:00 5.1 8 Norte 11 Norte 0 -- -- 88
2020-01-14 10:00:00 3.3 6 Norte 11 Nordeste 0 -- -- 93
2020-01-14 09:00:00 1.8 6 Norte 8 Norte 0 -- -- 95
2020-01-14 08:00:00 1.3 5 Nordeste 10 Norte 0 -- -- 96
2020-01-14 07:00:00 1.7 6 Nordeste 12 Norte 0 -- -- 95
2020-01-14 06:00:00 1.3 9 Norte 12 Norte 0 -- -- 95
2020-01-14 05:00:00 2 5 Norte 9 Nordeste 0 -- -- 92
2020-01-14 04:00:00 3.2 6 Nordeste 10 Norte 0 -- -- 90
2020-01-14 03:00:00 2.5 8 Norte 11 Norte 0 -- -- 92
2020-01-14 02:00:00 3.7 3 Norte 9 Norte 0 -- -- 89
2020-01-14 01:00:00 4.3 5 Norte 7 Norte 0 -- -- 87
2020-01-14 00:00:00 5.2 0 Calma 5 Este 0 -- -- 84
2020-01-13 23:00:00 5.6 2 Nordeste 4 Este 0 -- -- 83
2020-01-13 22:00:00 6.5 0 Calma 3 Oeste 0 -- -- 79
2020-01-13 21:00:00 7.5 4 Sur 6 Sudoeste 0 -- -- 76
2020-01-13 20:00:00 8.7 2 Sudeste 5 Sur 0 -- -- 70
2020-01-13 19:00:00 9.6 2 Sudoeste 6 Noroeste 0 -- -- 68
2020-01-13 18:00:00 11.8 3 Noroeste 12 Oeste 0 -- -- 60
2020-01-13 17:00:00 13 8 Oeste 13 Oeste 0 -- -- 55
2020-01-13 16:00:00 13.7 4 Sudoeste 10 Oeste 0 -- -- 53
2020-01-13 15:00:00 13 5 Sudoeste 9 Sudoeste 0 -- -- 56
2020-01-13 14:00:00 11.7 0 Calma 6 Norte 0 -- -- 59
2020-01-13 13:00:00 9.7 2 Norte 7 Norte 0 -- -- 66
2020-01-13 12:00:00 7.3 5 Norte 9 Norte 0 -- -- 76
2020-01-13 11:00:00 4.5 6 Norte 8 Norte 0 -- -- 87
2020-01-13 10:00:00 2 7 Norte 11 Norte 0 -- -- 93
2020-01-13 09:00:00 0.5 6 Nordeste 9 Norte 0 -- -- 94
2020-01-13 08:00:00 1.1 7 Nordeste 10 Norte 0 -- -- 94
2020-01-13 07:00:00 0.9 8 Norte 10 Norte 0 -- -- 94
2020-01-13 06:00:00 2 8 Nordeste 12 Nordeste 0 -- -- 92
2020-01-13 05:00:00 2.6 6 Nordeste 12 Nordeste 0 -- -- 91
2020-01-13 04:00:00 1.9 6 Norte 8 Norte 0 -- -- 93
2020-01-13 03:00:00 3 2 Norte 4 Nordeste 0 -- -- 88
2020-01-13 02:00:00 3.5 3 Nordeste 5 Norte 0 -- -- 87
2020-01-13 01:00:00 4.4 0 Calma 2 Noroeste 0 -- -- 82
2020-01-13 00:00:00 5.2 -- -- -- -- 0 -- -- 79
2020-01-12 23:00:00 7.2 6 Nordeste 7 Este 0 -- -- 71
2020-01-12 22:00:00 7.8 3 Nordeste 7 Norte 0 -- -- 70
2020-01-12 21:00:00 8.4 2 Norte 6 Nordeste 0 -- -- 66
2020-01-12 20:00:00 9.7 4 Norte 6 Este 0 -- -- 62
2020-01-12 19:00:00 11.2 4 Este -- -- 0 -- -- 58
2020-01-12 18:00:00 13.6 3 Nordeste 7 Nordeste 0 -- -- 50
2020-01-12 17:00:00 14.2 3 Nordeste 10 Este 0 -- -- 48
2020-01-12 16:00:00 14 7 Nordeste 12 Nordeste 0 -- -- 50
2020-01-12 15:00:00 13.3 4 Norte 9 Norte 0 -- -- 58
2020-01-12 14:00:00 11.9 5 Norte 9 Norte 0 -- -- 65
2020-01-12 13:00:00 10.6 5 Norte 12 Norte 0 -- -- 70
2020-01-12 12:00:00 9 7 Nordeste 12 Nordeste 0 -- -- 74
2020-01-12 11:00:00 5.8 8 Nordeste 12 Norte 0 -- -- 87
2020-01-12 10:00:00 2.6 8 Norte 11 Norte 0 -- -- 95
2020-01-12 09:00:00 1.2 9 Nordeste 14 Nordeste 0 -- -- 95
2020-01-12 08:00:00 1.7 9 Nordeste 12 Nordeste 0 -- -- 96
2020-01-12 07:00:00 1.4 6 Nordeste 9 Norte 0 -- -- 95
2020-01-12 06:00:00 2.4 4 Nordeste 6 Nordeste 0 -- -- 92
2020-01-12 05:00:00 3.2 3 Norte 9 Norte 0 -- -- 91
2020-01-12 04:00:00 3.1 5 Norte 9 Nordeste 0 -- -- 90
2020-01-12 03:00:00 3.4 0 Calma 4 Este 0 -- -- 88
2020-01-12 02:00:00 4 4 Este 6 Nordeste 0 -- -- 86
2020-01-12 01:00:00 4.8 2 Oeste 6 Sudoeste 0 -- -- 83
2020-01-12 00:00:00 6.5 5 Este 9 Nordeste 0 -- -- 77
2020-01-11 23:00:00 7.3 5 Nordeste 8 Norte 0 -- -- 74
2020-01-11 22:00:00 7.6 5 Norte 7 Norte 0 -- -- 72
2020-01-11 21:00:00 9 5 Nordeste 6 Nordeste 0 -- -- 67
2020-01-11 20:00:00 9.5 3 Este 5 Este 0 -- -- 65
2020-01-11 19:00:00 10.9 4 Este 10 Nordeste 0 -- -- 61
2020-01-11 18:00:00 13.6 5 Este 10 Nordeste 0 -- -- 52
2020-01-11 17:00:00 14.4 6 Nordeste 16 Nordeste 0 -- -- 47
2020-01-11 16:00:00 14.4 8 Nordeste 18 Nordeste 0 -- -- 49
2020-01-11 15:00:00 13.9 12 Nordeste 20 Nordeste 0 -- -- 48
2020-01-11 14:00:00 13.3 11 Nordeste 23 Nordeste 0 -- -- 50
2020-01-11 13:00:00 11.9 15 Nordeste 22 Nordeste 0 -- -- 54
2020-01-11 12:00:00 9.8 12 Este 19 Este 0 -- -- 62
2020-01-11 11:00:00 8 10 Nordeste 18 Nordeste 0 -- -- 68
2020-01-11 10:00:00 5.5 9 Nordeste 17 Nordeste 0 -- -- 75
2020-01-11 09:00:00 4.1 14 Nordeste 18 Nordeste 0 -- -- 78
2020-01-11 08:00:00 3.4 13 Nordeste 15 Nordeste 0 -- -- 80
2020-01-11 07:00:00 3.9 6 Nordeste 17 Nordeste 0 -- -- 77
2020-01-11 06:00:00 4.7 10 Nordeste 16 Nordeste 0 -- -- 74
2020-01-11 05:00:00 4.6 10 Nordeste 14 Nordeste 0 -- -- 74
2020-01-11 04:00:00 5.3 11 Nordeste 17 Nordeste 0 -- -- 71
2020-01-11 03:00:00 5.3 7 Norte 12 Nordeste 0 -- -- 71
2020-01-11 02:00:00 5.1 6 Nordeste 12 Nordeste 0 -- -- 72
2020-01-11 01:00:00 6.1 9 Nordeste 13 Nordeste 0 -- -- 70
2020-01-11 00:00:00 6.5 10 Nordeste 14 Nordeste 0 -- -- 68
2020-01-10 23:00:00 7.1 0 Calma 11 Nordeste 0 -- -- 64
2020-01-10 22:00:00 8.3 10 Este 18 Nordeste 0 -- -- 60
2020-01-10 21:00:00 9.3 13 Norte 20 Norte 0 -- -- 57
2020-01-10 20:00:00 9.6 6 Norte 17 Nordeste 0 -- -- 54
2020-01-10 19:00:00 10.6 10 Nordeste 19 Norte 0 -- -- 54
2020-01-10 18:00:00 12.7 9 Nordeste 36 Nordeste 0 -- -- 49
2020-01-10 17:00:00 14.4 24 Nordeste 36 Nordeste 0 -- -- 40
2020-01-10 16:00:00 14.5 17 Nordeste 29 Nordeste 0 -- -- 50
2020-01-10 15:00:00 13.9 13 Nordeste 24 Nordeste 0 -- -- 59
2020-01-10 14:00:00 13 15 Nordeste 25 Nordeste 0 -- -- 64
2020-01-10 13:00:00 11.7 10 Nordeste 21 Nordeste 0 -- -- 76
2020-01-10 12:00:00 10.8 3 Nordeste 6 Nordeste 0 -- -- 84
2020-01-10 11:00:00 9 4 Este 9 Este 0 -- -- 91
2020-01-10 10:00:00 7.9 5 Nordeste 8 Norte 0 -- -- 95
2020-01-10 09:00:00 7.2 4 Norte 8 Norte 0 -- -- 94
2020-01-10 08:00:00 7.7 4 Sudoeste 6 Sudoeste 0 -- -- 93
2020-01-10 07:00:00 7.9 0 Calma 6 Noroeste 0 -- -- 92
2020-01-10 06:00:00 7.7 0 Calma 3 Sudoeste 0 -- -- 93
2020-01-10 05:00:00 7.7 0 Calma 5 Nordeste 0 -- -- 92
2020-01-10 04:00:00 7.4 0 Calma 10 Oeste 0 -- -- 92
2020-01-10 03:00:00 7.1 2 Noroeste 8 Oeste 0 -- -- 92
2020-01-10 02:00:00 7 2 Sur 6 Sur 0 -- -- 90
2020-01-10 01:00:00 7.1 5 Sudoeste 9 Sur 0 -- -- 90
2020-01-10 00:00:00 7.1 5 Sudoeste 7 Sur 0 -- -- 90
2020-01-09 23:00:00 7.7 6 Sur 8 Sur 0 -- -- 86
2020-01-09 22:00:00 7.6 0 Calma 5 Sudoeste 0 -- -- 85
2020-01-09 21:00:00 9 3 Sudoeste 9 Sur 0 -- -- 80
2020-01-09 20:00:00 9.9 7 Sur 9 Sur 0 -- -- 78
2020-01-09 19:00:00 10.6 5 Sudoeste 10 Oeste 0 -- -- 74
2020-01-09 18:00:00 13 8 Sudoeste 16 Sudoeste 0 -- -- 66
2020-01-09 17:00:00 14.1 9 Sudoeste 21 Sudoeste 0 -- -- 62
2020-01-09 16:00:00 14.2 13 Oeste 22 Oeste 0 -- -- 60
2020-01-09 15:00:00 14.2 11 Sudoeste 17 Oeste 0 -- -- 61
2020-01-09 14:00:00 13.7 8 Sur 16 Sur 0 -- -- 63
2020-01-09 13:00:00 12.1 3 Sudoeste 6 Sudoeste 0 -- -- 63
2020-01-09 12:00:00 9.4 4 Norte 8 Norte 0 -- -- 79
2020-01-09 11:00:00 7.6 0 Calma 3 Sudeste 0 -- -- 84
2020-01-09 10:00:00 5.4 0 Calma 4 Este 0 -- -- 88
2020-01-09 09:00:00 3.1 0 Calma 5 Nordeste 0 -- -- 92
2020-01-09 08:00:00 3.5 2 Nordeste 7 Este 0 -- -- 89
2020-01-09 07:00:00 4.2 3 Nordeste 7 Nordeste 0 -- -- 90
2020-01-09 06:00:00 4.6 4 Nordeste 5 Norte 0 -- -- 88
2020-01-09 05:00:00 4.9 3 Nordeste 5 Nordeste 0 -- -- 85
2020-01-09 04:00:00 4.8 2 Nordeste 3 Nordeste 0 -- -- 85
2020-01-09 03:00:00 5 0 Calma 3 Nordeste 0 -- -- 83
2020-01-09 02:00:00 6 3 Norte 7 Norte 0 -- -- 81
2020-01-09 01:00:00 5.7 5 Este 7 Sudoeste 0 -- -- 81
2020-01-09 00:00:00 6.8 3 Sudoeste 6 Sudoeste 0 -- -- 79
2020-01-08 23:00:00 7.4 3 Sudoeste 4 Sudoeste 0 -- -- 77
2020-01-08 22:00:00 8.7 3 Sudeste 5 Este 0 -- -- 70
2020-01-08 21:00:00 9.6 2 Nordeste 8 Norte 0 -- -- 69
2020-01-08 20:00:00 11 8 Norte 8 Norte 0 -- -- 67
2020-01-08 19:00:00 13.5 4 Nordeste 7 Nordeste 0 -- -- 58
2020-01-08 18:00:00 15.9 5 Este 8 Este 0 -- -- 47
2020-01-08 17:00:00 16.7 5 Este 11 Este 0 -- -- 44
2020-01-08 16:00:00 16.6 6 Nordeste 11 Nordeste 0 -- -- 43
2020-01-08 15:00:00 15.8 4 Nordeste 12 Este 0 -- -- 44
2020-01-08 14:00:00 14.6 6 Este 12 Este 0 -- -- 52
2020-01-08 13:00:00 12.4 6 Este 15 Nordeste 0 -- -- 59
2020-01-08 12:00:00 9.3 6 Nordeste 17 Nordeste 0 -- -- 71
2020-01-08 11:00:00 6.5 13 Nordeste 18 Nordeste 0 -- -- 78
2020-01-08 10:00:00 3.1 8 Nordeste 15 Norte 0 -- -- 92
2020-01-08 09:00:00 2.2 9 Nordeste 12 Nordeste 0 -- -- 92
2020-01-08 08:00:00 2.5 9 Nordeste 14 Nordeste 0 -- -- 93
2020-01-08 07:00:00 2 11 Norte 14 Nordeste 0 -- -- 91
2020-01-08 06:00:00 3.8 12 Nordeste 17 Nordeste 0 -- -- 86
2020-01-08 05:00:00 2.9 8 Norte 14 Norte 0 -- -- 91
2020-01-08 04:00:00 3.7 9 Nordeste 12 Norte 0 -- -- 89
2020-01-08 03:00:00 4.4 5 Nordeste 7 Nordeste 0 -- -- 87
2020-01-08 02:00:00 5.6 3 Nordeste 8 Nordeste 0 -- -- 80
2020-01-08 01:00:00 6.7 6 Nordeste 9 Nordeste 0 -- -- 79
2020-01-08 00:00:00 6.9 2 Nordeste 5 Norte 0 -- -- 80
2020-01-07 23:00:00 8.1 3 Norte 4 Norte 0 -- -- 75
2020-01-07 22:00:00 8.8 2 Nordeste 8 Nordeste 0 -- -- 72
2020-01-07 21:00:00 10.5 7 Nordeste 10 Nordeste 0 -- -- 68
2020-01-07 20:00:00 11.2 5 Nordeste 9 Norte 0 -- -- 69
2020-01-07 19:00:00 11.8 7 Norte 8 Norte 0 -- -- 68
2020-01-07 18:00:00 15.1 3 Norte 5 Nordeste 0 -- -- 55
2020-01-07 17:00:00 16.3 4 Nordeste 10 Este 0 -- -- 44
2020-01-07 16:00:00 16.2 6 Este 15 Nordeste 0 -- -- 46
2020-01-07 15:00:00 15.1 11 Nordeste 19 Nordeste 0 -- -- 51
2020-01-07 14:00:00 14 12 Nordeste 19 Nordeste 0 -- -- 55
2020-01-07 13:00:00 11.8 7 Nordeste 17 Nordeste 0 -- -- 69
2020-01-07 12:00:00 9.5 15 Nordeste 21 Nordeste 0 -- -- 72
2020-01-07 11:00:00 7.7 9 Este 17 Este 0 -- -- 77
2020-01-07 10:00:00 4.6 9 Nordeste 13 Nordeste 0 -- -- 92
2020-01-07 09:00:00 3.1 10 Nordeste 14 Norte 0 -- -- 94
2020-01-07 08:00:00 2.5 8 Norte 20 Norte 0 -- -- 95
2020-01-07 07:00:00 3.5 3 Este 11 Este 0 -- -- 94
2020-01-07 06:00:00 2.9 6 Nordeste 10 Nordeste 0 -- -- 97
2020-01-07 05:00:00 2.6 9 Norte 17 Norte 0 -- -- 97
2020-01-07 04:00:00 3.2 8 Norte 11 Norte 0 -- -- 96
2020-01-07 03:00:00 4.4 7 Norte 8 Norte 0 -- -- 94
2020-01-07 02:00:00 4.5 9 Norte 11 Norte 0 -- -- 94
2020-01-07 01:00:00 5.7 2 Este 6 Este 0 -- -- 90
2020-01-07 00:00:00 6.7 5 Nordeste 10 Nordeste 0 -- -- 89
2020-01-06 23:00:00 6.7 6 Nordeste 10 Norte 0 -- -- 91
2020-01-06 22:00:00 7.3 6 Norte 10 Norte 0 -- -- 87
2020-01-06 21:00:00 7.8 4 Este 8 Norte 0 -- -- 84
2020-01-06 20:00:00 9.7 5 Este 8 Este 0 -- -- 77
2020-01-06 19:00:00 10.9 3 Nordeste 5 Norte 0 -- -- 74
2020-01-06 18:00:00 13.7 3 Norte 4 Norte 0 -- -- 65
2020-01-06 17:00:00 15.1 0 Calma 9 Sur 0 -- -- 61
2020-01-06 16:00:00 14.7 3 Sudoeste 9 Sur 0 -- -- 62
2020-01-06 15:00:00 13.9 4 Sur 11 Sudoeste 0 -- -- 66
2020-01-06 14:00:00 12.8 6 Sudoeste 12 Sudoeste 0 -- -- 67
2020-01-06 13:00:00 10.7 4 Nordeste 11 Nordeste 0 -- -- 75
2020-01-06 12:00:00 9.4 8 Este 13 Este 0 -- -- 77
2020-01-06 11:00:00 5.7 5 Norte 8 Norte 0 -- -- 96
2020-01-06 10:00:00 3.3 4 Nordeste 6 Norte 0 -- -- 98